Time;durP1;ratioP1;P1;durP2;ratioP2;P2;SDS_P1;SDS_P2;PMS_P1;PMS_P2;Temp;Humidity;BMP_temperature;BMP_pressure;BME280_temperature;BME280_humidity;BME280_pressure;Samples;Min_cycle;Max_cycle;Signal;HPM_P1;HPM_P2
2022/12/13 00:01:18;;;;;;;44.10;20.30;;;;;;;1.49;64.21;101379.47;5030221;28;20494;-48
2022/12/13 00:03:44;;;;;;;46.40;20.52;;;;;;;1.47;64.61;101376.78;5030454;28;20022;-44
2022/12/13 00:06:10;;;;;;;45.88;19.95;;;;;;;1.39;64.37;101370.34;5031794;28;20233;-42
2022/12/13 00:08:36;;;;;;;46.20;20.33;;;;;;;1.30;64.42;101376.63;5037031;28;20056;-43
2022/12/13 00:11:07;;;;;;;46.63;20.17;;;;;;;1.25;64.15;101378.03;5033120;28;20021;-43
2022/12/13 00:13:33;;;;;;;45.08;19.60;;;;;;;1.16;64.58;101373.25;5030686;28;20029;-44
2022/12/13 00:16:04;;;;;;;48.05;20.25;;;;;;;1.03;65.01;101366.53;5030684;28;20030;-42
2022/12/13 00:18:29;;;;;;;45.63;20.25;;;;;;;1.05;64.91;101371.72;5030390;28;20079;-43
2022/12/13 00:20:55;;;;;;;46.28;20.38;;;;;;;0.99;64.45;101369.69;5028642;28;20021;-43
2022/12/13 00:23:20;;;;;;;42.58;19.77;;;;;;;0.95;64.76;101364.28;5031441;28;20101;-43
2022/12/13 00:25:46;;;;;;;42.08;18.73;;;;;;;0.94;65.14;101365.06;5031171;28;20025;-49
2022/12/13 00:28:12;;;;;;;46.78;20.30;;;;;;;0.92;64.76;101362.41;5030947;28;20034;-42
2022/12/13 00:30:38;;;;;;;44.83;18.77;;;;;;;0.92;64.98;101356.38;5030310;28;20028;-43
2022/12/13 00:33:05;;;;;;;44.40;19.55;;;;;;;0.89;65.26;101361.34;5030366;28;20025;-42
2022/12/13 00:35:31;;;;;;;43.30;19.25;;;;;;;0.84;65.20;101358.53;5030263;28;20030;-48
2022/12/13 00:37:56;;;;;;;46.17;20.33;;;;;;;0.80;65.22;101362.56;5030129;28;20032;-41
2022/12/13 00:40:21;;;;;;;43.08;19.15;;;;;;;0.85;64.79;101362.88;5029169;28;20017;-44
2022/12/13 00:42:47;;;;;;;46.28;19.77;;;;;;;0.84;64.82;101361.09;5031024;28;20030;-45
2022/12/13 00:45:13;;;;;;;42.33;18.70;;;;;;;0.82;65.09;101354.97;5030216;28;20028;-46
2022/12/13 00:47:39;;;;;;;42.03;19.05;;;;;;;0.80;65.05;101354.88;5029585;28;20116;-43
2022/12/13 00:50:04;;;;;;;44.63;20.00;;;;;;;0.75;65.21;101350.25;5030245;28;20052;-43
2022/12/13 00:52:30;;;;;;;41.08;19.02;;;;;;;0.73;64.93;101342.47;5029638;28;20108;-46
2022/12/13 00:54:55;;;;;;;47.35;20.90;;;;;;;0.68;64.97;101338.75;5029736;28;20021;-43
2022/12/13 00:57:20;;;;;;;46.03;20.45;;;;;;;0.62;65.74;101340.03;5030604;28;20021;-45
2022/12/13 00:59:46;;;;;;;43.85;20.00;;;;;;;0.65;65.34;101338.56;5030810;28;20036;-47
2022/12/13 01:02:11;;;;;;;44.97;19.65;;;;;;;0.59;65.73;101347.56;5029602;28;20107;-43
2022/12/13 01:04:37;;;;;;;42.47;19.40;;;;;;;0.49;66.09;101348.69;5029770;28;20025;-42
2022/12/13 01:07:02;;;;;;;44.03;19.65;;;;;;;0.50;65.88;101344.44;5030239;28;20051;-45
2022/12/13 01:09:29;;;;;;;43.35;19.10;;;;;;;0.48;65.19;101348.59;5033388;28;20405;-42
2022/12/13 01:11:57;;;;;;;45.65;19.25;;;;;;;0.46;65.53;101345.06;5032978;28;20029;-43
2022/12/13 01:14:22;;;;;;;44.00;18.42;;;;;;;0.45;64.80;101341.59;5033419;28;20167;-43
2022/12/13 01:16:47;;;;;;;41.60;18.60;;;;;;;0.39;64.59;101341.22;5033439;28;20156;-43
2022/12/13 01:19:13;;;;;;;45.47;18.60;;;;;;;0.39;64.69;101346.34;5033205;28;20098;-48
2022/12/13 01:21:38;;;;;;;38.50;18.42;;;;;;;0.36;64.95;101347.06;5032892;28;20025;-42
2022/12/13 01:24:05;;;;;;;44.35;19.08;;;;;;;0.36;64.91;101344.50;5033257;28;20105;-43
2022/12/13 01:26:31;;;;;;;40.33;18.23;;;;;;;0.30;64.69;101339.00;5033159;28;20430;-43
2022/12/13 01:28:57;;;;;;;47.20;19.40;;;;;;;0.27;64.64;101338.78;5033191;28;20021;-43
2022/12/13 01:31:22;;;;;;;47.47;19.75;;;;;;;0.22;64.83;101342.75;5032740;28;20485;-44
2022/12/13 01:33:48;;;;;;;43.38;18.70;;;;;;;0.27;64.90;101330.22;5033012;28;20021;-47
2022/12/13 01:36:18;;;;;;;41.20;18.42;;;;;;;0.26;64.58;101331.88;5032966;28;20022;-48
2022/12/13 01:38:44;;;;;;;44.63;19.67;;;;;;;0.23;64.65;101334.28;5033195;28;20041;-45
2022/12/13 01:41:14;;;;;;;44.05;19.50;;;;;;;0.23;64.40;101323.13;5032882;28;20025;-42
2022/12/13 01:43:39;;;;;;;45.28;19.77;;;;;;;0.23;65.08;101330.84;5033058;28;20027;-43
2022/12/13 01:46:04;;;;;;;47.40;19.63;;;;;;;0.25;65.27;101330.13;5033236;28;20103;-46
2022/12/13 01:48:35;;;;;;;44.30;18.80;;;;;;;0.28;65.05;101329.44;5032917;28;20021;-43
2022/12/13 01:51:04;;;;;;;45.85;20.13;;;;;;;0.23;65.29;101331.72;5032670;28;20029;-43
2022/12/13 01:53:34;;;;;;;43.80;19.05;;;;;;;0.29;65.33;101334.66;5032840;28;20025;-43
2022/12/13 01:56:05;;;;;;;44.33;19.63;;;;;;;0.24;64.49;101338.63;5032939;28;20029;-43
2022/12/13 01:58:33;;;;;;;42.17;18.38;;;;;;;0.22;64.25;101337.63;5032818;28;20029;-43
2022/12/13 02:00:59;;;;;;;43.13;18.10;;;;;;;0.17;64.51;101339.03;5032692;28;20544;-43
2022/12/13 02:03:25;;;;;;;47.10;19.70;;;;;;;0.12;64.69;101340.44;5032737;28;20110;-42
2022/12/13 02:05:57;;;;;;;42.65;19.48;;;;;;;0.09;64.59;101336.78;5033429;28;20521;-42
2022/12/13 02:08:23;;;;;;;45.35;19.02;;;;;;;0.07;64.71;101334.09;5033517;28;20033;-40
2022/12/13 02:10:48;;;;;;;40.88;18.15;;;;;;;0.06;64.41;101336.59;5032252;28;20018;-44
2022/12/13 02:13:14;;;;;;;48.38;19.70;;;;;;;0.05;64.15;101337.38;5032220;28;20428;-48
2022/12/13 02:16:05;;;;;;;45.42;19.30;;;;;;;0.02;64.29;101330.38;5032294;28;20033;-41
2022/12/13 02:18:50;;;;;;;44.75;18.50;;;;;;;-0.01;64.52;101330.19;5031257;28;20401;-42
2022/12/13 02:21:32;;;;;;;42.83;19.33;;;;;;;-0.04;64.72;101325.75;5032084;28;20104;-43
2022/12/13 02:24:39;;;;;;;44.75;18.30;;;;;;;-0.06;64.60;101327.31;5032419;28;20515;-43
2022/12/13 02:27:30;;;;;;;42.35;18.35;;;;;;;-0.04;64.26;101324.88;5032105;28;20038;-42
2022/12/13 02:30:21;;;;;;;44.20;18.10;;;;;;;-0.06;64.14;101321.31;5032550;28;20500;-47
2022/12/13 02:33:09;;;;;;;47.15;18.65;;;;;;;-0.11;64.57;101315.00;5032320;28;20025;-44
2022/12/13 02:35:52;;;;;;;44.10;19.00;;;;;;;-0.13;64.43;101314.06;5032569;28;20576;-43
2022/12/13 02:38:35;;;;;;;45.20;18.80;;;;;;;-0.12;64.89;101313.22;5032199;28;20030;-43
2022/12/13 02:41:12;;;;;;;44.40;19.13;;;;;;;-0.08;64.92;101316.09;5031838;28;20037;-42
2022/12/13 02:44:00;;;;;;;43.95;18.65;;;;;;;-0.11;65.15;101315.91;5031410;28;20378;-43
2022/12/13 02:46:29;;;;;;;45.08;18.17;;;;;;;-0.06;64.95;101308.50;5032744;28;20029;-43
2022/12/13 02:48:56;;;;;;;47.90;19.15;;;;;;;-0.06;64.85;101301.69;5033936;28;20057;-45
2022/12/13 02:51:23;;;;;;;41.33;17.42;;;;;;;-0.09;65.43;101309.22;5031650;28;20029;-41
2022/12/13 02:53:49;;;;;;;44.92;18.05;;;;;;;-0.10;64.78;101316.78;5031473;28;20033;-42
2022/12/13 02:56:14;;;;;;;42.65;18.08;;;;;;;-0.12;64.94;101308.09;5032019;28;20511;-45
2022/12/13 02:58:44;;;;;;;42.03;18.33;;;;;;;-0.14;64.63;101318.28;5032535;28;20025;-43
2022/12/13 03:01:25;;;;;;;46.85;18.13;;;;;;;-0.14;64.75;101314.84;5031918;28;20481;-44
2022/12/13 03:03:53;;;;;;;43.67;18.52;;;;;;;-0.15;64.37;101307.94;5031913;28;20025;-44
2022/12/13 03:06:31;;;;;;;41.72;18.00;;;;;;;-0.13;64.58;101312.38;5031449;28;20024;-44
2022/12/13 03:09:07;;;;;;;48.10;19.73;;;;;;;-0.14;64.74;101313.16;5031886;28;20377;-42
2022/12/13 03:15:29;;;;;;;42.70;18.02;;;;;;;-0.16;64.86;101309.59;5031431;28;20585;-41
2022/12/13 03:17:59;;;;;;;43.85;18.27;;;;;;;-0.19;64.81;101309.44;5023570;28;20037;-42
2022/12/13 03:20:27;;;;;;;40.03;17.80;;;;;;;-0.16;64.82;101303.59;5036684;28;20067;-43
2022/12/13 03:22:54;;;;;;;42.28;17.65;;;;;;;-0.19;64.91;101317.13;5034366;28;20087;-43
2022/12/13 03:25:23;;;;;;;45.80;17.77;;;;;;;-0.23;64.66;101311.69;5033068;28;20049;-46
2022/12/13 03:27:48;;;;;;;42.88;18.23;;;;;;;-0.26;64.73;101311.50;5045982;22;20657;-41
2022/12/13 03:30:13;;;;;;;46.72;19.35;;;;;;;-0.27;64.79;101322.53;5030406;28;20025;-42
2022/12/13 03:32:39;;;;;;;45.83;18.30;;;;;;;-0.30;64.83;101314.63;5030604;28;20104;-40
2022/12/13 03:35:05;;;;;;;46.40;18.73;;;;;;;-0.32;64.58;101312.00;5030708;28;20423;-42
2022/12/13 03:37:30;;;;;;;43.08;18.17;;;;;;;-0.35;64.55;101314.34;5031032;28;20048;-39
2022/12/13 03:39:56;;;;;;;41.78;17.27;;;;;;;-0.34;65.10;101303.31;5030933;28;20169;-43
2022/12/13 03:42:21;;;;;;;49.05;18.83;;;;;;;-0.33;65.09;101306.78;5030300;28;20541;-40
2022/12/13 03:44:47;;;;;;;40.67;18.23;;;;;;;-0.32;65.25;101304.31;5030549;28;20035;-40
2022/12/13 03:47:12;;;;;;;44.88;18.58;;;;;;;-0.32;64.78;101306.88;5030774;28;20435;-43
2022/12/13 03:49:37;;;;;;;38.92;16.88;;;;;;;-0.34;64.27;101295.63;5030422;28;20033;-40
2022/12/13 03:52:03;;;;;;;39.63;17.42;;;;;;;-0.35;64.48;101304.09;5030441;28;20032;-44
2022/12/13 03:54:28;;;;;;;42.15;18.23;;;;;;;-0.36;64.42;101307.44;5030615;28;20024;-40
2022/12/13 03:56:54;;;;;;;42.47;17.55;;;;;;;-0.39;64.53;101307.28;5032706;28;20488;-39
2022/12/13 03:59:19;;;;;;;40.15;17.35;;;;;;;-0.40;64.19;101300.38;5035181;28;20040;-45
2022/12/13 04:01:45;;;;;;;40.30;16.70;;;;;;;-0.42;64.07;101304.50;5034075;28;20045;-41
2022/12/13 04:04:10;;;;;;;37.97;16.98;;;;;;;-0.43;64.29;101302.75;5031307;28;20452;-42
2022/12/13 04:06:35;;;;;;;41.85;17.65;;;;;;;-0.39;64.58;101306.38;5031606;28;20059;-42
2022/12/13 04:09:01;;;;;;;41.25;17.52;;;;;;;-0.39;64.50;101303.81;5032113;28;20025;-45
2022/12/13 04:14:11;;;;;;;39.63;16.95;;;;;;;-0.43;64.43;101308.72;5030557;28;20052;-40
2022/12/13 04:16:37;;;;;;;40.28;17.35;;;;;;;-0.42;64.02;101307.06;5030316;28;20075;-40
2022/12/13 04:19:02;;;;;;;41.38;17.48;;;;;;;-0.45;63.95;101302.66;5030604;28;20029;-43
2022/12/13 04:21:27;;;;;;;42.15;17.38;;;;;;;-0.48;64.15;101296.44;5029952;28;20033;-41
2022/12/13 04:23:53;;;;;;;39.35;17.02;;;;;;;-0.49;64.59;101292.97;5030116;28;20028;-42
2022/12/13 04:26:18;;;;;;;40.28;17.17;;;;;;;-0.53;64.34;101298.69;5029875;28;20036;-41
2022/12/13 04:28:44;;;;;;;41.50;17.27;;;;;;;-0.53;64.68;101285.91;5030422;28;20517;-42
2022/12/13 04:31:09;;;;;;;42.88;18.02;;;;;;;-0.51;63.94;101283.44;5029868;28;20108;-41
2022/12/13 04:33:34;;;;;;;39.85;16.85;;;;;;;-0.50;64.05;101282.66;5030042;28;20052;-42
2022/12/13 04:36:00;;;;;;;42.05;17.30;;;;;;;-0.54;63.93;101281.56;5029780;28;20018;-40
2022/12/13 04:38:25;;;;;;;40.33;16.60;;;;;;;-0.55;63.94;101290.03;5029932;28;20029;-41
2022/12/13 04:40:51;;;;;;;42.33;17.00;;;;;;;-0.51;63.56;101289.44;5029831;28;20029;-42
2022/12/13 04:43:16;;;;;;;41.47;18.23;;;;;;;-0.58;64.00;101292.41;5033094;28;20029;-41
2022/12/13 04:45:41;;;;;;;39.83;18.20;;;;;;;-0.63;64.29;101296.34;5034111;28;20502;-42
2022/12/13 04:48:07;;;;;;;41.45;17.98;;;;;;;-0.61;63.97;101288.78;5034050;28;20068;-41
2022/12/13 04:50:32;;;;;;;38.50;17.05;;;;;;;-0.63;63.60;101291.22;5033650;28;20053;-45
2022/12/13 04:52:58;;;;;;;41.72;17.65;;;;;;;-0.65;63.93;101297.91;5034025;28;20025;-42
2022/12/13 04:55:23;;;;;;;39.97;17.33;;;;;;;-0.65;63.67;101292.78;5034179;28;20022;-46
2022/12/13 04:57:48;;;;;;;40.10;17.08;;;;;;;-0.59;63.96;101285.50;5035081;28;20054;-45
2022/12/13 05:00:14;;;;;;;35.83;16.45;;;;;;;-0.56;64.16;101285.72;5034267;28;20517;-41
2022/12/13 05:02:40;;;;;;;37.53;16.05;;;;;;;-0.53;64.55;101283.34;5033766;28;20079;-42
2022/12/13 05:05:08;;;;;;;40.70;16.98;;;;;;;-0.47;64.44;101286.28;5033801;28;20018;-41
2022/12/13 05:07:33;;;;;;;39.97;16.90;;;;;;;-0.42;64.17;101284.91;5034327;28;20056;-41
2022/12/13 05:09:59;;;;;;;41.33;16.58;;;;;;;-0.35;64.80;101287.84;5034370;28;20104;-40
2022/12/13 05:12:24;;;;;;;36.60;16.27;;;;;;;-0.29;64.40;101280.56;5037342;28;20033;-41
2022/12/13 05:14:51;;;;;;;37.05;16.55;;;;;;;-0.24;64.36;101287.72;5037427;28;20051;-42
2022/12/13 05:17:16;;;;;;;40.35;18.20;;;;;;;-0.16;64.73;101278.84;5034207;28;20029;-41
2022/12/13 05:19:41;;;;;;;44.30;18.65;;;;;;;-0.10;64.92;101278.34;5034754;28;20056;-41
2022/12/13 05:22:14;;;;;;;42.97;17.92;;;;;;;-0.04;65.03;101284.75;5034811;28;20501;-43
2022/12/13 05:24:40;;;;;;;40.70;16.73;;;;;;;-0.03;64.46;101281.41;5033673;28;20087;-41
2022/12/13 05:27:05;;;;;;;39.65;17.92;;;;;;;0.01;65.04;101279.91;5033654;28;20037;-42
2022/12/13 05:29:30;;;;;;;44.33;18.65;;;;;;;0.08;64.85;101283.72;5033909;28;20021;-44
2022/12/13 05:31:56;;;;;;;43.17;18.45;;;;;;;0.12;65.11;101286.59;5032100;28;20075;-41
2022/12/13 05:34:21;;;;;;;41.70;18.23;;;;;;;0.18;65.01;101274.16;5033794;28;20037;-39
2022/12/13 05:36:46;;;;;;;40.78;17.42;;;;;;;0.20;64.69;101279.34;5033504;28;20056;-41
2022/12/13 05:39:12;;;;;;;37.97;17.02;;;;;;;0.23;65.15;101275.31;5033851;28;20036;-44
2022/12/13 05:41:37;;;;;;;47.38;18.27;;;;;;;0.25;65.17;101272.81;5033608;28;20036;-42
2022/12/13 05:44:03;;;;;;;42.95;17.33;;;;;;;0.18;64.95;101268.13;5033475;28;20020;-40
2022/12/13 05:46:28;;;;;;;43.22;18.05;;;;;;;0.16;65.99;101267.16;5032732;28;20036;-43
2022/12/13 05:48:53;;;;;;;38.42;17.80;;;;;;;0.31;65.75;101273.19;5033277;28;20025;-42
2022/12/13 05:51:18;;;;;;;41.63;18.02;;;;;;;0.31;65.35;101268.06;5033128;28;20025;-43
2022/12/13 05:53:45;;;;;;;40.47;18.48;;;;;;;0.33;65.19;101266.47;5034590;28;20492;-43
2022/12/13 05:56:11;;;;;;;42.47;18.35;;;;;;;0.31;65.71;101261.25;5036010;28;20379;-44
2022/12/13 05:58:38;;;;;;;44.78;18.85;;;;;;;0.32;65.87;101267.25;5036174;28;20106;-41
2022/12/13 06:01:09;;;;;;;43.88;18.15;;;;;;;0.32;65.54;101259.56;5036930;28;20033;-41
2022/12/13 06:03:35;;;;;;;41.00;18.33;;;;;;;0.24;66.07;101263.38;5035473;28;20053;-41
2022/12/13 06:06:02;;;;;;;40.97;17.98;;;;;;;0.37;65.89;101253.94;5033387;28;20053;-44
2022/12/13 06:08:28;;;;;;;43.05;18.45;;;;;;;0.32;66.08;101257.00;5032822;28;20025;-41
2022/12/13 06:10:59;;;;;;;42.13;18.17;;;;;;;0.43;65.38;101248.28;5036745;28;20040;-44
2022/12/13 06:13:24;;;;;;;41.92;17.98;;;;;;;0.42;65.09;101248.22;5038661;28;20021;-42
2022/12/13 06:15:50;;;;;;;43.28;17.15;;;;;;;0.31;64.60;101248.44;5036744;28;20025;-42
2022/12/13 06:18:16;;;;;;;39.58;17.50;;;;;;;0.25;64.82;101250.63;5034375;28;20030;-41
2022/12/13 06:20:42;;;;;;;41.35;17.95;;;;;;;0.27;64.57;101250.72;5034690;28;20029;-44
2022/12/13 06:23:07;;;;;;;41.65;17.42;;;;;;;0.13;64.86;101249.00;5033330;28;20131;-39
2022/12/13 06:25:33;;;;;;;42.67;18.30;;;;;;;0.25;65.17;101253.19;5032837;28;20029;-44
2022/12/13 06:27:58;;;;;;;41.63;17.75;;;;;;;0.22;65.03;101260.72;5033328;28;20026;-42
2022/12/13 06:30:24;;;;;;;40.85;18.17;;;;;;;0.21;64.96;101252.91;5032938;28;20021;-41
2022/12/13 06:32:49;;;;;;;37.90;16.85;;;;;;;0.21;64.79;101251.25;5033211;28;20386;-42
2022/12/13 06:35:15;;;;;;;40.45;17.92;;;;;;;0.16;64.93;101260.34;5032922;28;20109;-39
2022/12/13 06:37:40;;;;;;;44.72;18.60;;;;;;;0.19;65.23;101257.94;5032458;28;20029;-42
2022/12/13 06:40:06;;;;;;;38.50;17.55;;;;;;;0.16;65.20;101250.09;5032784;28;20100;-42
2022/12/13 06:42:32;;;;;;;44.80;18.55;;;;;;;0.13;64.94;101255.00;5032667;28;20076;-40
2022/12/13 06:44:57;;;;;;;44.72;19.65;;;;;;;0.08;65.44;101266.66;5032581;28;20079;-42
2022/12/13 06:47:24;;;;;;;48.15;18.77;;;;;;;0.12;65.17;101267.75;5032510;28;20029;-44
2022/12/13 06:49:49;;;;;;;42.92;19.35;;;;;;;0.12;65.98;101270.31;5033092;28;20034;-40
2022/12/13 06:52:14;;;;;;;48.53;19.88;;;;;;;0.05;66.15;101274.19;5032933;28;20018;-41
2022/12/13 06:54:41;;;;;;;43.53;19.70;;;;;;;0.21;66.25;101276.88;5032670;28;20037;-41
2022/12/13 06:57:06;;;;;;;42.65;18.83;;;;;;;0.30;65.49;101274.00;5032319;28;20025;-42
2022/12/13 06:59:32;;;;;;;46.05;19.52;;;;;;;0.32;65.47;101257.91;5032168;28;20026;-40
2022/12/13 07:01:58;;;;;;;41.42;19.02;;;;;;;0.23;65.72;101266.72;5031886;28;20021;-43
2022/12/13 07:04:23;;;;;;;43.85;18.75;;;;;;;0.25;65.33;101260.88;5031803;28;20555;-38
2022/12/13 07:06:48;;;;;;;46.17;18.80;;;;;;;0.25;64.97;101260.00;5032010;28;20109;-42
2022/12/13 07:09:14;;;;;;;47.30;18.95;;;;;;;0.17;65.68;101256.09;5031920;28;20076;-42
2022/12/13 07:11:39;;;;;;;44.17;18.40;;;;;;;0.19;65.33;101265.63;5032431;28;20034;-41
2022/12/13 07:14:04;;;;;;;47.28;19.02;;;;;;;0.19;65.64;101267.31;5032069;28;20029;-42
2022/12/13 07:16:30;;;;;;;45.50;18.35;;;;;;;0.09;65.95;101268.44;5032067;28;20032;-40
2022/12/13 07:18:57;;;;;;;44.35;18.20;;;;;;;0.31;65.18;101262.94;5031846;28;20029;-41
2022/12/13 07:21:22;;;;;;;41.40;19.17;;;;;;;0.22;65.68;101265.84;5032356;28;20040;-46
2022/12/13 07:23:51;;;;;;;42.30;18.77;;;;;;;0.25;65.33;101272.81;5033630;28;20049;-40
2022/12/13 07:26:17;;;;;;;44.30;19.20;;;;;;;0.33;65.41;101267.38;5032696;28;20077;-45
2022/12/13 07:28:42;;;;;;;45.10;18.85;;;;;;;0.21;65.07;101266.63;5032100;28;20036;-41
2022/12/13 07:31:09;;;;;;;45.10;18.38;;;;;;;0.30;65.19;101274.00;5033111;28;20029;-39
2022/12/13 07:33:35;;;;;;;45.83;18.70;;;;;;;0.30;65.14;101274.00;5033284;28;20028;-40
2022/12/13 07:36:12;;;;;;;42.40;17.98;;;;;;;0.27;64.89;101277.25;5033890;28;20055;-38
2022/12/13 07:38:37;;;;;;;41.20;18.33;;;;;;;0.18;64.54;101278.38;5033900;28;20575;-43
2022/12/13 07:41:04;;;;;;;43.53;17.67;;;;;;;0.10;64.69;101283.03;5033703;28;20026;-41
2022/12/13 07:43:30;;;;;;;36.72;16.67;;;;;;;0.00;64.17;101288.41;5031967;28;20053;-46
2022/12/13 07:46:00;;;;;;;41.92;17.15;;;;;;;-0.06;64.00;101288.88;5032038;28;20683;-42
2022/12/13 07:48:26;;;;;;;44.55;18.95;;;;;;;-0.09;64.21;101291.25;5031098;28;20401;-41
2022/12/13 07:50:52;;;;;;;43.80;18.30;;;;;;;-0.12;64.40;101285.03;5032227;28;20155;-41
2022/12/13 07:53:18;;;;;;;44.30;18.55;;;;;;;-0.14;64.59;101295.22;5034937;28;20037;-40
2022/12/13 07:55:43;;;;;;;44.83;18.60;;;;;;;-0.16;64.56;101280.53;5037132;28;20052;-41
2022/12/13 07:58:14;;;;;;;44.40;19.40;;;;;;;-0.16;64.46;101286.53;5035990;28;20025;-42
2022/12/13 08:00:44;;;;;;;47.00;19.55;;;;;;;-0.14;64.62;101284.97;5030167;28;20100;-39
2022/12/13 08:03:10;;;;;;;44.10;20.30;;;;;;;-0.19;65.44;101286.38;5030921;28;20044;-38
2022/12/13 08:05:36;;;;;;;46.38;20.05;;;;;;;-0.13;65.67;101293.56;5030628;28;20021;-41
2022/12/13 08:08:04;;;;;;;46.28;20.00;;;;;;;-0.12;65.07;101288.50;5030882;28;20029;-41
2022/12/13 08:10:29;;;;;;;49.60;21.55;;;;;;;-0.18;64.81;101288.13;5030352;28;20032;-45
2022/12/13 08:12:55;;;;;;;46.20;20.27;;;;;;;-0.18;64.68;101292.34;5029517;28;20032;-44
2022/12/13 08:15:21;;;;;;;48.25;20.33;;;;;;;-0.16;64.53;101298.47;5030552;28;20034;-43
2022/12/13 08:17:47;;;;;;;49.10;19.17;;;;;;;-0.17;64.64;101304.38;5029489;28;20021;-42
2022/12/13 08:20:13;;;;;;;46.28;19.85;;;;;;;-0.17;64.61;101299.25;5031082;28;20087;-41
2022/12/13 08:22:39;;;;;;;44.03;19.02;;;;;;;-0.15;64.58;101297.69;5032123;28;20021;-42
2022/12/13 08:25:05;;;;;;;46.35;19.98;;;;;;;-0.13;64.88;101301.25;5019242;28;20048;-38
2022/12/13 08:27:30;;;;;;;44.47;19.23;;;;;;;-0.08;64.83;101305.84;5013666;28;20041;-42
2022/12/13 08:29:56;;;;;;;45.78;19.40;;;;;;;-0.08;65.23;101313.56;5013842;28;20022;-46
2022/12/13 08:32:21;;;;;;;47.33;19.48;;;;;;;0.01;64.86;101313.22;5014237;28;20124;-41
2022/12/13 08:34:46;;;;;;;47.33;20.27;;;;;;;-0.01;64.49;101308.03;5014208;28;20068;-40
2022/12/13 08:37:12;;;;;;;44.88;19.88;;;;;;;0.08;65.01;101307.69;5016490;28;20478;-40
2022/12/13 08:39:38;;;;;;;48.00;20.23;;;;;;;0.12;64.86;101311.34;5018974;28;20045;-43
2022/12/13 08:42:12;;;;;;;48.13;19.88;;;;;;;0.16;64.71;101309.06;5016915;28;20049;-43
2022/12/13 08:44:37;;;;;;;43.80;20.08;;;;;;;0.19;65.13;101311.78;5015949;28;20036;-40
2022/12/13 08:47:03;;;;;;;44.53;20.25;;;;;;;0.29;65.32;101314.16;5013945;28;20108;-41
2022/12/13 08:49:28;;;;;;;51.45;21.08;;;;;;;0.35;65.07;101304.25;5015847;28;20022;-41
2022/12/13 08:51:53;;;;;;;48.78;21.70;;;;;;;0.43;65.27;101308.97;5014862;28;20073;-41
2022/12/13 08:54:18;;;;;;;51.00;20.75;;;;;;;0.51;64.92;101300.94;5015586;28;20044;-38
2022/12/13 08:56:44;;;;;;;49.00;20.98;;;;;;;0.53;64.90;101296.78;5014952;28;20030;-41
2022/12/13 08:59:09;;;;;;;48.95;20.83;;;;;;;0.61;65.10;101303.25;5014427;28;20021;-39
2022/12/13 09:01:34;;;;;;;50.58;21.80;;;;;;;0.66;64.85;101301.88;5010372;28;20022;-41
2022/12/13 09:04:00;;;;;;;43.17;19.80;;;;;;;0.69;65.00;101298.56;5011189;28;20018;-40
2022/12/13 09:06:25;;;;;;;45.45;20.55;;;;;;;0.71;64.28;101302.13;5012048;28;20014;-41
2022/12/13 09:08:52;;;;;;;43.63;20.17;;;;;;;0.74;64.76;101303.19;5010892;28;20403;-41
2022/12/13 09:11:18;;;;;;;45.50;19.27;;;;;;;0.86;64.70;101297.00;5011703;28;20270;-42
2022/12/13 09:13:44;;;;;;;42.70;19.60;;;;;;;0.90;65.20;101301.53;5012509;28;20024;-43
2022/12/13 09:16:15;;;;;;;51.67;21.25;;;;;;;0.96;65.07;101302.78;5012176;28;20108;-45
2022/12/13 09:18:41;;;;;;;42.15;19.33;;;;;;;1.01;64.86;101300.47;5012306;28;20073;-43
2022/12/13 09:21:11;;;;;;;47.13;20.65;;;;;;;1.03;65.26;101299.78;5012745;28;20399;-39
2022/12/13 09:23:39;;;;;;;48.05;20.33;;;;;;;1.12;65.29;101307.09;5012508;28;20030;-40
2022/12/13 09:28:49;;;;;;;39.45;18.75;;;;;;;1.25;64.95;101301.88;5018504;28;20050;-38
2022/12/13 09:31:17;;;;;;;45.30;21.20;;;;;;;1.31;65.55;101304.78;5035615;28;20022;-38
2022/12/13 09:33:43;;;;;;;45.15;21.13;;;;;;;1.39;64.99;101307.81;5019872;28;20065;-39
2022/12/13 09:36:12;;;;;;;46.53;20.88;;;;;;;1.54;65.14;101313.81;5015978;28;20036;-39
2022/12/13 09:38:38;;;;;;;47.83;21.08;;;;;;;1.56;65.07;101309.66;5013748;28;20496;-39
2022/12/13 09:41:32;;;;;;;45.67;21.42;;;;;;;1.59;65.14;101305.53;5012816;28;20041;-35
2022/12/13 09:44:09;;;;;;;45.85;21.55;;;;;;;1.63;64.90;101304.94;5012222;28;20038;-40
2022/12/13 09:46:38;;;;;;;43.25;20.45;;;;;;;1.77;64.67;101312.53;5013477;28;20421;-40
2022/12/13 09:49:11;;;;;;;44.95;21.45;;;;;;;1.78;64.53;101312.59;5013697;28;20022;-36
2022/12/13 09:51:37;;;;;;;51.15;22.13;;;;;;;1.71;64.02;101301.91;5012489;28;20033;-38
2022/12/13 09:54:03;;;;;;;51.15;22.50;;;;;;;1.82;64.81;101299.13;5012967;28;20029;-41
2022/12/13 09:56:28;;;;;;;50.17;22.60;;;;;;;1.91;64.35;101298.72;5013520;28;20033;-38
2022/12/13 09:58:55;;;;;;;53.38;23.75;;;;;;;1.64;64.61;101308.41;5014339;28;20105;-40
2022/12/13 10:01:22;;;;;;;55.00;23.52;;;;;;;1.87;64.38;101302.84;5018163;28;20358;-40
2022/12/13 10:03:50;;;;;;;50.58;22.85;;;;;;;1.98;63.84;101296.59;5018894;28;20089;-39
2022/12/13 10:06:19;;;;;;;49.03;22.48;;;;;;;2.08;64.05;101295.38;5016277;28;20512;-38
2022/12/13 10:08:48;;;;;;;50.95;23.50;;;;;;;2.12;63.67;101287.03;5014001;28;20034;-39
2022/12/13 10:11:16;;;;;;;47.60;22.45;;;;;;;2.12;64.14;101279.34;5012807;28;20041;-40
2022/12/13 10:13:54;;;;;;;48.45;22.35;;;;;;;2.16;63.79;101272.66;5013056;28;20021;-40
2022/12/13 10:16:30;;;;;;;51.53;22.15;;;;;;;2.22;64.17;101279.00;5012617;28;20029;-37
2022/12/13 10:18:56;;;;;;;51.70;23.13;;;;;;;2.20;63.60;101278.03;5012834;28;20091;-41
2022/12/13 10:21:32;;;;;;;51.05;23.42;;;;;;;2.18;63.37;101278.78;5012539;28;20053;-38
2022/12/13 10:24:11;;;;;;;85.15;34.90;;;;;;;2.19;63.49;101281.44;5012740;28;20044;-39
2022/12/13 10:26:37;;;;;;;92.18;34.63;;;;;;;2.33;62.84;101277.88;5012620;28;20034;-41
2022/12/13 10:29:05;;;;;;;74.88;30.80;;;;;;;2.30;62.71;101256.25;5012674;28;20049;-38
2022/12/13 10:31:42;;;;;;;150.80;65.28;;;;;;;2.28;62.26;101250.16;5012674;28;20029;-37
2022/12/13 10:34:15;;;;;;;89.95;39.63;;;;;;;2.40;62.79;101243.94;5012595;28;20026;-38
2022/12/13 10:36:42;;;;;;;75.28;36.83;;;;;;;2.52;62.98;101246.25;5013381;28;20081;-39
2022/12/13 10:39:16;;;;;;;60.17;28.80;;;;;;;2.59;62.58;101250.94;5012181;28;20394;-39
2022/12/13 10:41:41;;;;;;;52.13;24.00;;;;;;;2.60;63.78;101244.09;5012269;28;20525;-39
2022/12/13 10:44:12;;;;;;;49.65;22.95;;;;;;;2.80;62.80;101246.88;5012619;28;20260;-40
2022/12/13 10:46:40;;;;;;;54.95;24.73;;;;;;;2.75;61.93;101244.84;5011987;28;20735;-40
2022/12/13 10:49:25;;;;;;;83.30;35.17;;;;;;;2.85;63.31;101247.09;5012851;28;20021;-39
2022/12/13 10:51:53;;;;;;;283.45;112.10;;;;;;;2.97;62.82;101247.72;5012874;28;20041;-40
2022/12/13 10:54:30;;;;;;;147.35;58.92;;;;;;;3.17;62.21;101244.41;5012844;28;20062;-41
2022/12/13 10:56:59;;;;;;;142.07;61.80;;;;;;;2.88;62.71;101234.38;5012649;28;20267;-38
2022/12/13 10:59:30;;;;;;;80.43;37.58;;;;;;;3.18;61.04;101233.28;5013840;28;20113;-39
2022/12/13 11:01:55;;;;;;;62.63;28.70;;;;;;;3.36;61.48;101230.72;5014054;28;20028;-39
2022/12/13 11:04:28;;;;;;;49.70;23.42;;;;;;;3.32;61.71;101233.09;5013204;28;20026;-38
2022/12/13 11:06:54;;;;;;;48.55;23.30;;;;;;;3.16;61.97;101221.16;5012351;28;20204;-41
2022/12/13 11:09:32;;;;;;;49.00;23.45;;;;;;;3.34;60.59;101232.34;5011211;28;20084;-41
2022/12/13 11:12:10;;;;;;;51.80;24.02;;;;;;;3.37;60.18;101234.19;5012650;28;20125;-38
2022/12/13 11:14:53;;;;;;;49.00;23.75;;;;;;;3.13;60.38;101231.31;5013252;28;20017;-38
2022/12/13 11:17:25;;;;;;;48.15;22.98;;;;;;;3.34;60.87;101232.34;5013131;28;20378;-40
2022/12/13 11:19:55;;;;;;;54.25;22.17;;;;;;;3.31;59.97;101218.44;5014907;28;20030;-41
2022/12/13 11:22:26;;;;;;;47.28;23.00;;;;;;;3.22;60.28;101219.78;5013960;28;20040;-38
2022/12/13 11:25:06;;;;;;;50.45;23.73;;;;;;;3.14;60.63;101210.78;5013660;28;20018;-41
2022/12/13 11:28:20;;;;;;;49.97;23.92;;;;;;;3.31;60.50;101200.38;5013759;28;20337;-40